Time;durP1;ratioP1;P1;durP2;ratioP2;P2;SDS_P1;SDS_P2;PMS_P1;PMS_P2;Temp;Humidity;BMP_temperature;BMP_pressure;BME280_temperature;BME280_humidity;BME280_pressure;Samples;Min_cycle;Max_cycle;Signal;HPM_P1;HPM_P2
2021/10/08 00:01:53;;;;;;;13.93;12.50;;;15.90;99.90;;;;;;5022795;28;20491;-65
2021/10/08 00:04:21;;;;;;;18.60;16.70;;;15.90;99.90;;;;;;5025922;28;20806;-64
2021/10/08 00:06:48;;;;;;;16.40;14.70;;;15.80;99.90;;;;;;5023671;28;20476;-64
2021/10/08 00:09:17;;;;;;;12.90;11.73;;;15.80;99.90;;;;;;5018417;28;20799;-64
2021/10/08 00:11:44;;;;;;;12.53;11.33;;;15.80;99.90;;;;;;5032684;28;20473;-65
2021/10/08 00:14:11;;;;;;;13.17;12.00;;;15.80;99.90;;;;;;5019127;28;20516;-64
2021/10/08 00:16:38;;;;;;;11.73;10.67;;;15.80;99.90;;;;;;5032791;28;20463;-64
2021/10/08 00:19:05;;;;;;;15.70;13.87;;;15.80;99.90;;;;;;5019022;28;20476;-64
2021/10/08 00:21:32;;;;;;;14.43;12.97;;;15.70;99.90;;;;;;5020985;28;20461;-65
2021/10/08 00:23:58;;;;;;;16.50;14.97;;;15.70;99.90;;;;;;5026222;28;20486;-64
2021/10/08 00:26:27;;;;;;;15.57;13.97;;;15.70;99.90;;;;;;5020292;28;20815;-65
2021/10/08 00:28:53;;;;;;;20.57;18.23;;;15.70;99.90;;;;;;5019561;28;20875;-65
2021/10/08 00:31:20;;;;;;;17.43;15.60;;;15.60;99.90;;;;;;5022414;28;20479;-65
2021/10/08 00:33:47;;;;;;;16.63;14.97;;;15.50;99.90;;;;;;5025143;28;20478;-64
2021/10/08 00:36:14;;;;;;;14.40;13.00;;;15.50;99.90;;;;;;5029405;28;20542;-64
2021/10/08 00:38:41;;;;;;;19.73;15.30;;;15.50;99.90;;;;;;5028277;28;20552;-65
2021/10/08 00:41:08;;;;;;;17.60;15.00;;;15.50;99.90;;;;;;5017366;28;20464;-64
2021/10/08 00:43:36;;;;;;;15.60;14.00;;;15.50;99.90;;;;;;5025719;28;20967;-64
2021/10/08 00:46:03;;;;;;;14.77;13.23;;;15.40;99.90;;;;;;5024171;28;20470;-65
2021/10/08 00:48:30;;;;;;;18.00;14.67;;;15.40;99.90;;;;;;5018343;28;20485;-65
2021/10/08 00:50:57;;;;;;;22.77;20.27;;;15.40;99.90;;;;;;5023723;28;20482;-64
2021/10/08 00:53:24;;;;;;;17.77;15.83;;;15.40;99.90;;;;;;5018204;28;20806;-65
2021/10/08 00:55:52;;;;;;;13.13;11.83;;;15.30;99.90;;;;;;5020651;28;20473;-64
2021/10/08 00:58:22;;;;;;;24.23;20.33;;;15.30;99.90;;;;;;5021343;28;20551;-64
2021/10/08 01:00:55;;;;;;;19.10;15.40;;;15.30;99.90;;;;;;5019677;28;20490;-64
2021/10/08 01:03:24;;;;;;;15.50;13.20;;;15.30;99.90;;;;;;5024935;28;20469;-65
2021/10/08 01:05:51;;;;;;;14.97;13.50;;;15.30;99.90;;;;;;5025414;28;20472;-64
2021/10/08 01:08:21;;;;;;;22.40;20.10;;;15.20;99.90;;;;;;5018942;28;20471;-64
2021/10/08 01:10:48;;;;;;;17.57;15.67;;;15.20;99.90;;;;;;5018966;28;20507;-64
2021/10/08 01:13:16;;;;;;;19.80;17.80;;;15.20;99.90;;;;;;5023617;28;20477;-65
2021/10/08 01:15:45;;;;;;;28.38;21.83;;;15.20;99.90;;;;;;5027035;28;20452;-65
2021/10/08 01:18:13;;;;;;;20.93;18.83;;;15.20;99.90;;;;;;5022339;28;20232;-64
2021/10/08 01:20:42;;;;;;;72.77;59.93;;;15.20;99.90;;;;;;5027103;28;20470;-64
2021/10/08 01:23:08;;;;;;;19.97;18.17;;;15.10;99.90;;;;;;5019091;28;20461;-64
2021/10/08 01:25:36;;;;;;;17.10;15.33;;;15.10;99.90;;;;;;5028126;28;20469;-64
2021/10/08 01:28:06;;;;;;;15.97;14.20;;;15.10;99.90;;;;;;5025714;28;20478;-65
2021/10/08 01:30:34;;;;;;;13.27;12.00;;;15.10;99.90;;;;;;5021933;28;20468;-64
2021/10/08 01:33:02;;;;;;;15.90;14.33;;;15.10;99.90;;;;;;5024572;28;20477;-64
2021/10/08 01:35:29;;;;;;;14.30;12.90;;;15.00;99.90;;;;;;5028736;28;20476;-65
2021/10/08 01:37:57;;;;;;;13.57;12.37;;;15.00;99.90;;;;;;5024263;28;20491;-64
2021/10/08 01:40:24;;;;;;;12.87;11.57;;;15.00;99.90;;;;;;5028970;28;20472;-64
2021/10/08 01:42:51;;;;;;;13.67;12.27;;;15.00;99.90;;;;;;5022895;28;20464;-65
2021/10/08 01:45:18;;;;;;;12.60;11.40;;;14.90;99.90;;;;;;5028538;28;20469;-65
2021/10/08 01:47:45;;;;;;;12.83;11.20;;;14.90;99.90;;;;;;5028464;28;20795;-65
2021/10/08 01:50:13;;;;;;;14.17;12.87;;;14.90;99.90;;;;;;5029400;28;20750;-64
2021/10/08 01:52:40;;;;;;;17.03;15.20;;;14.90;99.90;;;;;;5022719;28;20469;-65
2021/10/08 01:55:09;;;;;;;14.37;12.90;;;14.80;99.90;;;;;;5028825;28;20822;-64
2021/10/08 01:57:36;;;;;;;14.57;12.27;;;14.80;99.90;;;;;;5028357;28;20466;-64
2021/10/08 02:00:04;;;;;;;13.87;12.67;;;14.80;99.90;;;;;;5022587;28;20467;-64
2021/10/08 02:02:31;;;;;;;13.47;12.17;;;14.70;99.90;;;;;;5021442;28;20473;-64
2021/10/08 02:04:58;;;;;;;13.67;12.27;;;14.70;99.90;;;;;;5028162;28;20487;-64
2021/10/08 02:07:25;;;;;;;14.20;12.90;;;14.70;99.90;;;;;;5028427;28;20463;-64
2021/10/08 02:09:52;;;;;;;13.73;12.50;;;14.60;99.90;;;;;;5022850;28;20564;-64
2021/10/08 02:12:21;;;;;;;12.80;11.63;;;14.60;99.90;;;;;;5021103;28;20472;-64
2021/10/08 02:14:48;;;;;;;14.00;12.57;;;14.60;99.90;;;;;;5027587;28;20469;-64
2021/10/08 02:17:16;;;;;;;13.03;11.93;;;14.60;99.90;;;;;;5032794;28;20470;-64
2021/10/08 02:19:43;;;;;;;12.70;11.50;;;14.60;99.90;;;;;;5023721;28;20468;-65
2021/10/08 02:22:09;;;;;;;13.83;12.33;;;14.50;99.90;;;;;;5021711;28;20830;-64
2021/10/08 02:24:36;;;;;;;12.60;11.43;;;14.50;99.90;;;;;;5025496;28;20464;-64
2021/10/08 02:27:04;;;;;;;14.60;13.03;;;14.50;99.90;;;;;;5021704;28;20469;-64
2021/10/08 02:29:32;;;;;;;11.83;10.73;;;14.50;99.90;;;;;;5025464;28;20473;-64
2021/10/08 02:31:59;;;;;;;14.17;12.80;;;14.50;99.90;;;;;;5027542;28;20464;-64
2021/10/08 02:34:25;;;;;;;14.30;12.90;;;14.50;99.90;;;;;;5023831;28;20464;-65
2021/10/08 02:36:52;;;;;;;13.43;12.07;;;14.40;99.90;;;;;;5018303;28;20477;-64
2021/10/08 02:39:19;;;;;;;15.20;13.80;;;14.40;99.90;;;;;;5024042;28;20232;-65
2021/10/08 02:41:46;;;;;;;14.97;13.50;;;14.40;99.90;;;;;;5021119;28;20970;-65
2021/10/08 02:44:13;;;;;;;15.40;14.03;;;14.40;99.90;;;;;;5024664;28;20819;-64
2021/10/08 02:46:41;;;;;;;14.57;13.37;;;14.40;99.90;;;;;;5027501;28;20491;-64
2021/10/08 02:49:08;;;;;;;15.63;14.13;;;14.40;99.90;;;;;;5020293;28;20475;-64
2021/10/08 02:51:35;;;;;;;14.07;12.87;;;14.30;99.90;;;;;;5027561;28;20815;-64
2021/10/08 02:54:03;;;;;;;15.68;13.68;;;14.30;99.90;;;;;;5025196;28;20496;-64
2021/10/08 02:56:30;;;;;;;14.73;13.32;;;14.30;99.90;;;;;;5020630;28;20460;-65
2021/10/08 02:58:57;;;;;;;14.93;13.60;;;14.30;99.90;;;;;;5023209;28;20222;-64
2021/10/08 03:01:24;;;;;;;15.15;13.63;;;14.30;99.90;;;;;;5026953;28;20469;-64
2021/10/08 03:03:52;;;;;;;15.77;14.17;;;14.30;99.90;;;;;;5025808;28;20249;-64
2021/10/08 03:06:19;;;;;;;13.98;12.60;;;14.20;99.90;;;;;;5020165;28;20472;-64
2021/10/08 03:08:48;;;;;;;14.93;13.43;;;14.20;99.90;;;;;;5022871;28;20226;-65
2021/10/08 03:11:15;;;;;;;17.30;15.18;;;14.20;99.90;;;;;;5032404;28;20551;-64
2021/10/08 03:13:41;;;;;;;14.95;13.55;;;14.20;99.90;;;;;;5021617;28;20226;-64
2021/10/08 03:16:08;;;;;;;16.40;14.53;;;14.10;99.90;;;;;;5032155;28;20707;-64
2021/10/08 03:18:35;;;;;;;17.05;15.38;;;14.10;99.90;;;;;;5021590;28;20499;-64
2021/10/08 03:21:03;;;;;;;17.40;15.70;;;14.10;99.90;;;;;;5027472;28;20230;-65
2021/10/08 03:23:30;;;;;;;17.30;15.50;;;14.10;99.90;;;;;;5016982;28;20557;-64
2021/10/08 03:25:57;;;;;;;16.00;14.40;;;14.10;99.90;;;;;;5027183;28;20687;-64
2021/10/08 03:28:24;;;;;;;14.57;13.27;;;14.00;99.90;;;;;;5025231;28;20235;-64
2021/10/08 03:30:51;;;;;;;17.27;15.47;;;14.10;99.90;;;;;;5020575;28;20970;-65
2021/10/08 03:33:18;;;;;;;16.37;14.87;;;14.00;99.90;;;;;;5021389;28;20473;-64
2021/10/08 03:35:45;;;;;;;17.20;15.23;;;14.10;99.90;;;;;;5023426;28;20472;-64
2021/10/08 03:38:16;;;;;;;17.60;15.65;;;14.10;99.90;;;;;;4994193;28;20470;-64
2021/10/08 03:40:48;;;;;;;19.95;17.77;;;14.00;99.90;;;;;;5010750;28;20221;-64
2021/10/08 03:43:15;;;;;;;18.20;16.37;;;14.00;99.90;;;;;;5001543;28;20231;-64
2021/10/08 03:45:49;;;;;;;19.70;17.58;;;13.90;99.90;;;;;;5006843;28;20908;-64
2021/10/08 03:48:49;;;;;;;17.10;15.40;;;13.90;99.90;;;;;;5006199;28;20230;-64
2021/10/08 03:51:16;;;;;;;18.23;16.40;;;13.90;99.90;;;;;;5004720;28;20297;-65
2021/10/08 03:53:44;;;;;;;17.15;15.45;;;13.80;99.90;;;;;;5000057;28;20673;-64
2021/10/08 03:56:14;;;;;;;19.77;17.77;;;13.80;99.90;;;;;;5001647;28;20238;-64
2021/10/08 03:58:41;;;;;;;18.98;16.92;;;13.80;99.90;;;;;;5007040;28;20218;-65
2021/10/08 04:01:08;;;;;;;23.55;19.42;;;13.80;99.90;;;;;;5004852;28;20226;-64
2021/10/08 04:03:34;;;;;;;19.57;17.50;;;13.80;99.90;;;;;;5000173;28;20232;-64
2021/10/08 04:06:01;;;;;;;23.10;17.92;;;13.80;99.90;;;;;;5001603;28;20462;-65
2021/10/08 04:08:29;;;;;;;21.73;19.00;;;13.70;99.90;;;;;;5014414;28;21086;-64
2021/10/08 04:10:57;;;;;;;20.98;17.80;;;13.80;99.90;;;;;;5005589;28;20232;-64
2021/10/08 04:13:24;;;;;;;24.50;20.80;;;13.80;99.90;;;;;;4999265;28;20233;-64
2021/10/08 04:15:51;;;;;;;30.70;24.30;;;13.80;99.90;;;;;;5010225;28;20222;-64
2021/10/08 04:18:17;;;;;;;28.27;23.63;;;13.80;99.90;;;;;;4993849;28;20474;-64
2021/10/08 04:20:44;;;;;;;30.42;26.77;;;13.80;99.90;;;;;;5005614;28;20222;-64
2021/10/08 04:23:11;;;;;;;32.25;26.70;;;13.80;99.90;;;;;;4999525;28;20222;-65
2021/10/08 04:25:38;;;;;;;37.35;26.35;;;13.70;99.90;;;;;;5000909;28;20233;-64
2021/10/08 04:28:07;;;;;;;32.70;27.57;;;13.70;99.90;;;;;;5006012;28;20223;-64
2021/10/08 04:30:34;;;;;;;29.17;25.97;;;13.70;99.90;;;;;;5005775;28;20475;-64
2021/10/08 04:33:01;;;;;;;32.78;26.65;;;13.70;99.90;;;;;;4994840;28;20490;-64
2021/10/08 04:35:28;;;;;;;32.70;26.98;;;13.60;99.90;;;;;;4993792;28;20265;-64
2021/10/08 04:37:55;;;;;;;36.25;28.40;;;13.60;99.90;;;;;;5012860;28;20217;-64
2021/10/08 04:40:22;;;;;;;33.55;27.50;;;13.60;99.90;;;;;;5007968;28;20226;-64
2021/10/08 04:42:49;;;;;;;30.00;26.73;;;13.60;99.90;;;;;;5005068;28;20229;-65
2021/10/08 04:45:17;;;;;;;32.08;27.42;;;13.60;99.90;;;;;;5005723;28;20232;-64
2021/10/08 04:47:44;;;;;;;34.10;26.07;;;13.60;99.90;;;;;;5001657;28;20699;-64
2021/10/08 04:50:11;;;;;;;33.93;26.27;;;13.70;99.90;;;;;;5010183;28;20493;-64
2021/10/08 04:52:37;;;;;;;35.75;26.90;;;13.70;99.90;;;;;;5003969;28;20466;-64
2021/10/08 04:55:05;;;;;;;33.58;27.05;;;13.70;99.90;;;;;;5010283;28;20305;-64
2021/10/08 04:57:32;;;;;;;34.88;29.23;;;13.70;99.90;;;;;;5007882;28;20622;-64
2021/10/08 04:59:59;;;;;;;30.98;27.13;;;13.80;99.90;;;;;;5005783;28;20237;-64
2021/10/08 05:02:27;;;;;;;37.10;29.65;;;13.80;99.90;;;;;;5009630;28;20222;-64
2021/10/08 05:04:54;;;;;;;40.80;30.43;;;13.80;99.90;;;;;;5012502;28;20222;-64
2021/10/08 05:07:20;;;;;;;33.80;26.33;;;13.80;99.90;;;;;;5008600;28;20475;-64
2021/10/08 05:09:47;;;;;;;35.83;29.45;;;13.90;99.90;;;;;;5005638;28;20473;-65
2021/10/08 05:12:14;;;;;;;34.72;28.50;;;13.90;99.90;;;;;;5008747;28;20576;-65
2021/10/08 05:14:41;;;;;;;36.83;29.23;;;13.90;99.90;;;;;;5012375;28;20228;-65
2021/10/08 05:17:08;;;;;;;32.53;28.33;;;13.90;99.90;;;;;;5004741;28;20233;-65
2021/10/08 05:19:37;;;;;;;33.33;29.25;;;13.90;99.90;;;;;;5001964;28;20479;-65
2021/10/08 05:22:04;;;;;;;32.45;28.00;;;13.90;99.90;;;;;;5008908;28;20230;-65
2021/10/08 05:24:30;;;;;;;33.60;29.97;;;13.90;99.90;;;;;;5002596;28;20222;-65
2021/10/08 05:26:57;;;;;;;35.73;30.47;;;13.90;99.90;;;;;;5008527;28;20480;-64
2021/10/08 05:29:24;;;;;;;32.00;28.27;;;13.90;99.90;;;;;;5012015;28;20823;-65
2021/10/08 05:31:51;;;;;;;33.83;28.23;;;13.90;99.90;;;;;;5010084;28;20230;-65
2021/10/08 05:34:19;;;;;;;40.60;29.43;;;13.90;99.90;;;;;;5004978;28;20221;-65
2021/10/08 05:36:49;;;;;;;34.93;31.17;;;13.80;99.90;;;;;;5020404;28;20512;-65
2021/10/08 05:39:16;;;;;;;33.08;29.00;;;13.80;99.90;;;;;;5023289;28;20472;-65
2021/10/08 05:41:43;;;;;;;39.60;32.80;;;13.80;99.90;;;;;;5026152;28;20243;-65
2021/10/08 05:44:10;;;;;;;32.70;29.03;;;13.80;99.90;;;;;;5032003;28;20469;-65
2021/10/08 05:46:37;;;;;;;34.73;30.50;;;13.80;99.90;;;;;;5030930;28;20470;-66
2021/10/08 05:49:04;;;;;;;39.17;32.17;;;13.80;99.90;;;;;;5023456;28;20472;-66
2021/10/08 05:51:31;;;;;;;36.58;29.27;;;13.80;99.90;;;;;;5037028;28;20255;-65
2021/10/08 05:53:59;;;;;;;33.30;28.57;;;13.80;99.90;;;;;;5037113;28;20319;-65
2021/10/08 05:56:26;;;;;;;33.00;28.45;;;13.80;99.90;;;;;;5038009;28;20510;-66
2021/10/08 05:58:53;;;;;;;30.70;26.73;;;13.80;99.90;;;;;;5038666;28;20221;-66
2021/10/08 06:01:20;;;;;;;36.78;30.08;;;13.80;99.90;;;;;;5037983;28;20567;-64
2021/10/08 06:03:46;;;;;;;36.40;32.47;;;13.80;99.90;;;;;;5038779;28;20213;-64
2021/10/08 06:06:13;;;;;;;48.15;33.08;;;13.80;99.90;;;;;;5036019;28;20225;-66
2021/10/08 06:08:40;;;;;;;39.25;29.90;;;13.80;99.90;;;;;;5034786;28;20225;-65
2021/10/08 06:11:09;;;;;;;39.97;30.67;;;13.80;99.90;;;;;;5035533;28;20236;-65
2021/10/08 06:13:36;;;;;;;37.25;29.48;;;13.80;99.90;;;;;;5034788;28;20240;-65
2021/10/08 06:16:03;;;;;;;35.42;30.05;;;13.80;99.90;;;;;;5035172;28;20243;-65
2021/10/08 06:18:30;;;;;;;37.13;30.40;;;13.80;99.90;;;;;;5034749;28;20229;-65
2021/10/08 06:20:56;;;;;;;37.20;28.57;;;13.70;99.90;;;;;;5035200;28;21026;-65
2021/10/08 06:23:23;;;;;;;35.70;27.60;;;13.80;99.90;;;;;;5034474;28;20470;-66
2021/10/08 06:25:50;;;;;;;33.63;28.23;;;13.80;99.90;;;;;;5035434;28;20468;-65
2021/10/08 06:28:18;;;;;;;40.58;31.50;;;13.80;99.90;;;;;;5034522;28;20468;-65
2021/10/08 06:30:45;;;;;;;32.45;28.95;;;13.80;99.90;;;;;;5034749;28;20691;-65
2021/10/08 06:33:12;;;;;;;34.70;28.73;;;13.90;99.90;;;;;;5034705;28;20221;-65
2021/10/08 06:35:41;;;;;;;32.85;27.92;;;13.90;99.90;;;;;;5034845;28;20236;-66
2021/10/08 06:38:09;;;;;;;33.70;28.13;;;13.90;99.90;;;;;;5034647;28;20253;-65
2021/10/08 06:40:37;;;;;;;33.25;29.48;;;13.90;99.90;;;;;;5034207;28;20233;-65
2021/10/08 06:43:04;;;;;;;32.70;28.08;;;13.90;99.90;;;;;;5034833;28;20233;-64
2021/10/08 06:45:33;;;;;;;30.27;26.13;;;13.90;99.90;;;;;;5034110;28;20691;-64
2021/10/08 06:48:00;;;;;;;33.85;29.05;;;13.90;99.90;;;;;;5034154;28;20472;-64
2021/10/08 06:50:27;;;;;;;31.40;27.67;;;13.90;99.90;;;;;;5033712;28;20239;-65
2021/10/08 06:52:54;;;;;;;31.27;27.83;;;13.90;99.90;;;;;;5034070;28;20460;-64
2021/10/08 06:55:21;;;;;;;34.05;27.73;;;13.90;99.90;;;;;;5033535;28;20686;-64
2021/10/08 06:57:48;;;;;;;32.70;27.60;;;13.90;99.90;;;;;;5034006;28;20225;-64
2021/10/08 07:00:14;;;;;;;32.80;27.88;;;14.00;99.90;;;;;;5034376;28;20478;-64
2021/10/08 07:02:50;;;;;;;32.22;28.88;;;14.00;99.90;;;;;;5033628;28;20247;-64
2021/10/08 07:05:17;;;;;;;33.05;28.27;;;14.00;99.90;;;;;;5033734;28;20256;-64
2021/10/08 07:07:44;;;;;;;34.30;28.37;;;14.00;99.90;;;;;;5033428;28;20671;-65
2021/10/08 07:10:11;;;;;;;35.80;29.67;;;14.00;99.90;;;;;;5033693;28;20472;-64
2021/10/08 07:12:38;;;;;;;31.03;27.77;;;14.10;99.90;;;;;;5033581;28;20244;-64
2021/10/08 07:15:11;;;;;;;34.50;28.97;;;14.20;99.90;;;;;;5034014;28;20950;-64
2021/10/08 07:17:41;;;;;;;28.77;25.60;;;14.20;99.90;;;;;;5032382;28;20564;-64
2021/10/08 07:20:10;;;;;;;30.77;27.47;;;14.30;99.90;;;;;;5033796;28;20551;-64
2021/10/08 07:22:38;;;;;;;39.60;29.63;;;14.40;99.90;;;;;;5032863;28;21036;-64
2021/10/08 07:25:06;;;;;;;33.27;27.23;;;14.40;99.90;;;;;;5033525;28;20468;-64
2021/10/08 07:27:33;;;;;;;34.13;27.20;;;14.50;99.90;;;;;;5033203;28;20464;-64
2021/10/08 07:30:00;;;;;;;32.07;27.43;;;14.50;99.90;;;;;;5033237;28;20472;-64
2021/10/08 07:32:28;;;;;;;28.67;24.90;;;14.60;99.90;;;;;;5033187;28;20468;-64
2021/10/08 07:34:55;;;;;;;29.17;25.90;;;14.70;99.90;;;;;;5032992;28;20467;-64
2021/10/08 07:37:24;;;;;;;32.23;27.00;;;14.80;99.90;;;;;;5032836;28;21040;-65
2021/10/08 07:39:52;;;;;;;31.00;26.70;;;14.80;99.90;;;;;;5033353;28;20471;-64
2021/10/08 07:42:19;;;;;;;29.33;26.17;;;14.80;99.90;;;;;;5033071;28;20568;-64
2021/10/08 07:44:45;;;;;;;34.20;25.30;;;14.90;99.90;;;;;;5032710;28;20474;-64
2021/10/08 07:47:12;;;;;;;27.87;24.93;;;14.80;99.90;;;;;;5033278;28;20464;-64
2021/10/08 07:49:39;;;;;;;29.70;25.67;;;14.80;99.90;;;;;;5032468;28;20479;-64
2021/10/08 07:52:06;;;;;;;29.53;25.27;;;14.90;99.90;;;;;;5033143;28;20472;-65
2021/10/08 07:54:34;;;;;;;29.33;24.43;;;14.90;99.90;;;;;;5032251;28;20468;-64
2021/10/08 07:57:01;;;;;;;27.57;24.83;;;14.90;99.90;;;;;;5032629;28;20486;-64
2021/10/08 07:59:28;;;;;;;25.50;22.80;;;14.90;99.90;;;;;;5032435;28;20478;-64
2021/10/08 08:01:58;;;;;;;28.83;25.37;;;15.00;99.90;;;;;;5022388;28;20475;-64
2021/10/08 08:04:25;;;;;;;27.67;24.67;;;15.00;99.90;;;;;;5012765;28;20479;-64
2021/10/08 08:06:52;;;;;;;28.00;23.53;;;15.00;99.90;;;;;;5013251;28;20465;-64
2021/10/08 08:09:19;;;;;;;32.53;26.10;;;15.00;99.90;;;;;;5012792;28;20968;-64
2021/10/08 08:11:47;;;;;;;30.17;24.13;;;15.00;99.90;;;;;;5012556;28;20467;-64
2021/10/08 08:14:14;;;;;;;24.80;22.33;;;15.00;99.90;;;;;;5013094;28;20507;-64
2021/10/08 08:16:41;;;;;;;26.77;23.77;;;15.00;99.90;;;;;;5022052;28;20806;-65
2021/10/08 08:19:10;;;;;;;26.10;23.40;;;15.00;99.90;;;;;;5032668;28;20472;-64
2021/10/08 08:21:37;;;;;;;28.80;24.03;;;15.10;99.90;;;;;;5032104;28;20465;-64
2021/10/08 08:24:04;;;;;;;28.93;24.03;;;15.10;99.90;;;;;;5019627;28;20990;-65
2021/10/08 08:26:31;;;;;;;28.10;22.77;;;15.20;99.90;;;;;;5012409;28;20465;-65
2021/10/08 08:28:59;;;;;;;26.00;23.23;;;15.30;99.90;;;;;;5012662;28;20804;-64
2021/10/08 08:31:26;;;;;;;30.80;24.90;;;15.30;99.90;;;;;;5012030;28;20473;-64
2021/10/08 08:33:53;;;;;;;27.77;22.93;;;15.30;99.90;;;;;;5012346;28;20475;-64
2021/10/08 08:36:19;;;;;;;30.53;23.00;;;15.30;99.90;;;;;;5012788;28;20784;-64
2021/10/08 08:38:46;;;;;;;26.00;22.03;;;15.30;99.90;;;;;;5017017;28;20939;-64
2021/10/08 08:41:13;;;;;;;24.73;22.23;;;15.40;99.90;;;;;;5032137;28;20468;-64
2021/10/08 08:43:40;;;;;;;25.00;22.50;;;15.50;99.90;;;;;;5031774;28;20475;-65
2021/10/08 08:46:08;;;;;;;25.40;22.77;;;15.60;99.90;;;;;;5032231;28;20809;-64
2021/10/08 08:48:36;;;;;;;25.73;22.00;;;15.70;99.90;;;;;;5031511;28;20472;-64
2021/10/08 08:51:03;;;;;;;24.53;21.80;;;15.80;99.90;;;;;;5032327;28;20468;-64
2021/10/08 08:53:30;;;;;;;23.63;21.17;;;15.80;99.90;;;;;;5031864;28;20594;-65
2021/10/08 08:55:57;;;;;;;22.00;19.67;;;15.90;99.90;;;;;;5032078;28;20943;-64
2021/10/08 08:58:24;;;;;;;25.20;19.80;;;15.90;99.90;;;;;;5032064;28;20472;-64
2021/10/08 09:00:57;;;;;;;22.43;19.23;;;15.90;99.90;;;;;;5031687;28;20467;-64
2021/10/08 09:03:26;;;;;;;27.47;21.00;;;16.00;99.90;;;;;;5032106;28;20478;-64
2021/10/08 09:05:52;;;;;;;23.03;19.90;;;16.00;99.90;;;;;;5032050;28;20483;-64
2021/10/08 09:08:19;;;;;;;23.97;17.90;;;16.00;99.90;;;;;;5031749;28;20466;-65
2021/10/08 09:10:48;;;;;;;20.40;17.20;;;16.00;99.90;;;;;;5031412;28;20468;-64
2021/10/08 09:13:16;;;;;;;20.87;16.47;;;16.10;99.90;;;;;;5031831;28;20460;-65
2021/10/08 09:15:49;;;;;;;21.60;16.30;;;16.20;99.90;;;;;;5031280;28;20468;-64
2021/10/08 09:18:17;;;;;;;19.70;14.77;;;16.20;99.90;;;;;;5031935;28;20818;-65
2021/10/08 09:21:07;;;;;;;17.47;14.80;;;16.20;99.90;;;;;;5031515;28;20966;-65
2021/10/08 09:23:36;;;;;;;23.10;14.90;;;16.30;99.90;;;;;;5031578;28;20563;-64
2021/10/08 09:26:04;;;;;;;18.23;14.60;;;16.30;99.90;;;;;;5032225;28;20475;-64
2021/10/08 09:28:32;;;;;;;17.00;15.30;;;16.40;99.90;;;;;;5031589;28;20480;-65
2021/10/08 09:30:59;;;;;;;21.97;16.30;;;16.40;99.90;;;;;;5031923;28;20468;-64
2021/10/08 09:33:30;;;;;;;18.80;15.47;;;16.50;99.40;;;;;;5032052;28;20478;-64
2021/10/08 09:36:00;;;;;;;19.70;13.73;;;16.50;99.00;;;;;;5031606;28;20448;-64
2021/10/08 09:38:33;;;;;;;18.40;13.10;;;16.50;98.60;;;;;;5031847;28;20978;-65
2021/10/08 09:41:05;;;;;;;18.47;11.97;;;16.50;98.50;;;;;;5032236;28;21170;-64
2021/10/08 09:43:32;;;;;;;24.30;13.90;;;16.50;98.10;;;;;;5035543;28;20468;-64
2021/10/08 09:46:00;;;;;;;23.87;12.80;;;16.50;97.00;;;;;;5035376;28;20872;-64
2021/10/08 09:48:38;;;;;;;17.60;13.17;;;16.50;97.00;;;;;;5035427;28;20474;-64
2021/10/08 09:51:07;;;;;;;15.90;11.30;;;16.60;97.30;;;;;;5035072;28;20509;-64
2021/10/08 09:53:40;;;;;;;17.80;11.10;;;16.70;96.80;;;;;;5035266;28;20482;-64
2021/10/08 09:56:30;;;;;;;16.70;10.87;;;16.70;96.30;;;;;;5034921;28;20456;-64
2021/10/08 09:58:56;;;;;;;13.43;11.57;;;16.80;96.20;;;;;;5034854;28;20555;-64
2021/10/08 10:01:27;;;;;;;18.17;11.13;;;16.80;96.20;;;;;;5035050;28;20462;-64
2021/10/08 10:03:55;;;;;;;25.90;9.40;;;16.80;95.20;;;;;;5034830;28;20494;-64
2021/10/08 10:06:22;;;;;;;11.87;10.50;;;16.80;94.60;;;;;;5034856;28;20463;-64
2021/10/08 10:08:51;;;;;;;16.10;9.60;;;16.90;95.30;;;;;;5034396;28;20478;-64
2021/10/08 10:11:19;;;;;;;14.50;9.70;;;17.00;95.40;;;;;;5035128;28;20470;-64
2021/10/08 10:13:48;;;;;;;15.63;9.03;;;17.10;95.00;;;;;;5034937;28;20467;-65
2021/10/08 10:16:16;;;;;;;12.80;9.70;;;17.20;93.90;;;;;;5034670;28;20482;-65
2021/10/08 10:18:47;;;;;;;12.10;8.73;;;17.20;93.70;;;;;;5034875;28;20471;-64
2021/10/08 10:21:16;;;;;;;12.83;9.30;;;17.20;93.20;;;;;;5034159;28;20460;-64
2021/10/08 10:23:43;;;;;;;18.63;9.13;;;17.20;93.00;;;;;;5034464;28;20464;-64
2021/10/08 10:26:12;;;;;;;18.87;9.50;;;17.20;92.70;;;;;;5034388;28;20471;-64
2021/10/08 10:28:39;;;;;;;13.23;9.27;;;17.20;92.00;;;;;;5034749;28;20469;-64
2021/10/08 10:31:07;;;;;;;18.57;9.23;;;17.30;92.10;;;;;;5034555;28;20472;-64
2021/10/08 10:33:34;;;;;;;12.77;9.93;;;17.30;92.00;;;;;;5034421;28;20460;-64
2021/10/08 10:36:01;;;;;;;14.80;9.00;;;17.20;91.60;;;;;;5033899;28;20990;-64
2021/10/08 10:38:36;;;;;;;14.47;9.47;;;17.30;91.50;;;;;;5031786;28;20464;-64
2021/10/08 10:41:26;;;;;;;17.80;10.07;;;17.20;91.50;;;;;;5014014;28;20471;-64
2021/10/08 10:44:12;;;;;;;10.90;8.93;;;17.30;91.40;;;;;;5014259;28;20475;-64
2021/10/08 10:52:29;;;;;;;17.50;10.63;;;17.40;91.70;;;;;;5013501;28;20946;-64
2021/10/08 10:55:02;;;;;;;17.70;11.20;;;17.40;92.20;;;;;;5014280;28;20477;-64
2021/10/08 10:57:58;;;;;;;17.07;9.37;;;17.40;91.90;;;;;;5013866;28;20527;-65
2021/10/08 11:00:45;;;;;;;21.33;11.20;;;17.50;91.90;;;;;;5013630;28;20483;-65
2021/10/08 11:03:15;;;;;;;18.30;10.20;;;17.40;92.00;;;;;;5013151;28;20573;-64
2021/10/08 11:06:09;;;;;;;12.27;9.47;;;17.40;92.10;;;;;;5013853;28;20473;-64
2021/10/08 11:08:37;;;;;;;14.37;10.07;;;17.30;92.30;;;;;;5013872;28;20467;-63
2021/10/08 11:11:17;;;;;;;17.23;11.00;;;17.30;92.40;;;;;;5014280;28;20465;-64
2021/10/08 11:13:47;;;;;;;17.37;11.23;;;17.40;92.60;;;;;;4994030;28;20465;-64
2021/10/08 11:16:16;;;;;;;12.00;8.90;;;17.40;92.50;;;;;;4999910;28;20974;-64
2021/10/08 11:18:48;;;;;;;13.20;9.60;;;17.40;92.00;;;;;;5013329;28;20460;-64
2021/10/08 11:21:50;;;;;;;12.00;9.17;;;17.40;92.00;;;;;;5013812;28;20868;-64
2021/10/08 11:24:19;;;;;;;13.97;9.77;;;17.40;92.10;;;;;;5013569;28;20531;-64
2021/10/08 11:26:59;;;;;;;12.03;9.30;;;17.50;92.10;;;;;;5011194;28;20479;-64
2021/10/08 11:29:32;;;;;;;12.40;9.03;;;17.50;91.90;;;;;;5001036;28;21812;-64
2021/10/08 11:32:05;;;;;;;12.50;8.90;;;17.50;92.00;;;;;;5006654;28;20465;-64
2021/10/08 11:34:32;;;;;;;14.93;9.77;;;17.60;92.10;;;;;;5000515;28;20453;-63
2021/10/08 11:37:00;;;;;;;13.77;9.13;;;17.60;91.60;;;;;;5008380;28;20967;-64
2021/10/08 11:39:28;;;;;;;14.83;9.53;;;17.60;91.80;;;;;;5015258;28;20480;-64
2021/10/08 11:42:03;;;;;;;13.10;9.30;;;17.60;92.00;;;;;;5033123;28;20464;-64
2021/10/08 11:44:36;;;;;;;15.83;10.27;;;17.70;92.10;;;;;;5031929;28;20535;-64
2021/10/08 11:52:39;;;;;;;31.23;12.77;;;17.70;91.60;;;;;;4995046;28;20531;-63
2021/10/08 11:55:13;;;;;;;16.27;10.60;;;17.80;91.70;;;;;;5011636;28;20477;-63
2021/10/08 11:57:51;;;;;;;11.47;10.20;;;17.90;91.80;;;;;;5008780;28;20487;-64
2021/10/08 12:00:20;;;;;;;19.97;10.10;;;17.90;91.60;;;;;;5003709;28;20803;-63
2021/10/08 12:03:05;;;;;;;10.73;9.60;;;17.90;91.30;;;;;;5007637;28;20474;-63
2021/10/08 12:05:49;;;;;;;13.90;10.33;;;17.90;90.90;;;;;;4994924;28;20473;-64
2021/10/08 12:08:18;;;;;;;19.23;9.70;;;17.90;90.90;;;;;;5003584;28;20485;-64
2021/10/08 12:10:57;;;;;;;17.97;9.63;;;17.90;90.80;;;;;;5011483;28;20913;-63
2021/10/08 12:13:36;;;;;;;14.70;9.50;;;17.90;90.70;;;;;;5012805;28;20544;-63
2021/10/08 12:16:04;;;;;;;33.83;13.93;;;17.90;90.80;;;;;;5009946;28;21796;-63
2021/10/08 12:18:31;;;;;;;23.57;12.80;;;17.80;90.40;;;;;;5006301;28;20479;-63
2021/10/08 12:21:09;;;;;;;16.13;9.73;;;17.80;90.30;;;;;;5008347;28;20487;-64
2021/10/08 12:23:36;;;;;;;12.10;9.00;;;17.90;90.30;;;;;;5001581;28;20480;-64
2021/10/08 12:26:03;;;;;;;12.43;9.03;;;17.90;90.10;;;;;;5003246;28;20454;-63
2021/10/08 12:28:30;;;;;;;11.70;8.73;;;17.90;90.20;;;;;;5007373;28;20472;-63
2021/10/08 12:30:59;;;;;;;12.10;9.10;;;17.90;90.20;;;;;;5003865;28;20477;-63
2021/10/08 12:33:30;;;;;;;9.60;8.40;;;18.00;90.30;;;;;;5007044;28;20475;-64
2021/10/08 12:36:19;;;;;;;15.33;9.20;;;18.10;90.30;;;;;;5025806;28;21073;-63
2021/10/08 12:39:11;;;;;;;14.70;9.53;;;18.10;90.00;;;;;;5024976;28;20468;-64
2021/10/08 12:41:45;;;;;;;12.20;8.80;;;18.00;89.80;;;;;;5008164;28;20479;-63
2021/10/08 12:44:16;;;;;;;14.00;9.23;;;18.00;89.30;;;;;;5011547;28;20945;-63
2021/10/08 12:46:45;;;;;;;10.10;8.37;;;18.00;89.10;;;;;;4993162;28;20489;-63
2021/10/08 12:49:13;;;;;;;18.30;9.17;;;18.10;89.40;;;;;;5001598;28;20465;-63